Time;durP1;ratioP1;P1;durP2;ratioP2;P2;SDS_P1;SDS_P2;PMS_P1;PMS_P2;Temp;Humidity;BMP_temperature;BMP_pressure;BME280_temperature;BME280_humidity;BME280_pressure;Samples;Min_cycle;Max_cycle;Signal;HPM_P1;HPM_P2
2023/04/29 00:01:24;;;;;;;41.92;21.95;;;9.70;99.90;;;;;;5060941;28;20625;-67
2023/04/29 00:03:50;;;;;;;32.90;17.42;;;9.80;99.90;;;;;;5041962;28;20037;-71
2023/04/29 00:06:19;;;;;;;44.25;22.95;;;9.80;99.90;;;;;;5047412;28;20056;-65
2023/04/29 00:08:44;;;;;;;53.47;27.42;;;9.80;99.90;;;;;;5046807;28;20048;-65
2023/04/29 00:11:10;;;;;;;44.30;23.52;;;9.80;99.90;;;;;;5045680;28;20462;-67
2023/04/29 00:13:36;;;;;;;39.53;19.60;;;9.60;99.90;;;;;;5046372;28;20056;-68
2023/04/29 00:16:01;;;;;;;42.28;23.25;;;9.80;99.90;;;;;;5047499;28;20468;-67
2023/04/29 00:18:27;;;;;;;42.45;22.58;;;9.60;99.90;;;;;;5045711;28;20048;-68
2023/04/29 00:20:58;;;;;;;42.50;23.90;;;9.70;99.90;;;;;;5039913;28;20037;-68
2023/04/29 00:23:23;;;;;;;49.83;25.67;;;9.60;99.90;;;;;;5045821;28;20048;-67
2023/04/29 00:25:50;;;;;;;42.17;22.55;;;9.60;99.90;;;;;;5060783;28;20429;-66
2023/04/29 00:28:16;;;;;;;36.10;17.55;;;9.60;99.90;;;;;;5044589;28;20041;-67
2023/04/29 00:30:41;;;;;;;37.97;19.50;;;9.50;99.90;;;;;;5046898;28;20106;-68
2023/04/29 00:33:07;;;;;;;42.90;23.35;;;9.60;99.90;;;;;;5044661;28;20048;-68
2023/04/29 00:35:33;;;;;;;43.92;22.00;;;9.50;99.90;;;;;;5061275;28;20045;-68
2023/04/29 00:37:59;;;;;;;40.90;21.55;;;9.40;99.90;;;;;;5042190;28;20117;-68
2023/04/29 00:40:26;;;;;;;36.53;19.38;;;9.40;99.90;;;;;;5041472;28;20120;-69
2023/04/29 00:42:51;;;;;;;42.75;23.55;;;9.40;99.90;;;;;;5043662;28;20033;-66
2023/04/29 00:45:17;;;;;;;41.47;20.45;;;9.40;99.90;;;;;;5042965;28;20522;-68
2023/04/29 00:47:42;;;;;;;49.15;25.88;;;9.30;99.90;;;;;;5061232;28;20040;-68
2023/04/29 00:50:08;;;;;;;47.25;25.05;;;9.40;99.90;;;;;;5048090;28;20036;-67
2023/04/29 00:52:37;;;;;;;41.80;23.63;;;9.20;99.90;;;;;;5039419;28;20373;-70
2023/04/29 00:55:04;;;;;;;48.95;26.20;;;9.30;99.90;;;;;;5045031;28;20052;-69
2023/04/29 00:57:30;;;;;;;42.28;22.33;;;9.30;99.90;;;;;;5040315;28;20075;-69
2023/04/29 00:59:59;;;;;;;55.15;27.55;;;9.20;99.90;;;;;;5041977;28;20044;-69
2023/04/29 01:02:25;;;;;;;47.28;25.88;;;9.10;99.90;;;;;;5044047;28;20092;-68
2023/04/29 01:04:51;;;;;;;44.55;25.50;;;9.00;99.90;;;;;;5048892;28;20036;-68
2023/04/29 01:07:33;;;;;;;51.80;25.77;;;9.00;99.90;;;;;;5042560;28;20102;-68
2023/04/29 01:10:18;;;;;;;52.85;26.70;;;9.10;99.90;;;;;;5061845;28;20464;-67
2023/04/29 01:13:05;;;;;;;48.15;23.23;;;9.10;99.90;;;;;;5045151;28;20045;-68
2023/04/29 01:16:00;;;;;;;39.22;19.58;;;9.00;99.90;;;;;;5045792;28;20464;-66
2023/04/29 01:18:38;;;;;;;35.53;16.33;;;9.20;99.90;;;;;;5043259;28;20040;-66
2023/04/29 01:21:03;;;;;;;39.40;19.65;;;9.20;99.90;;;;;;5042629;28;20732;-65
2023/04/29 01:23:29;;;;;;;47.63;23.52;;;9.30;99.90;;;;;;5046823;28;20036;-67
2023/04/29 01:25:56;;;;;;;48.67;25.92;;;9.20;99.90;;;;;;5045129;28;20050;-66
2023/04/29 01:29:12;;;;;;;43.85;20.17;;;9.30;99.90;;;;;;5043045;28;20032;-68
2023/04/29 01:31:50;;;;;;;51.13;24.63;;;9.30;99.90;;;;;;5019229;28;20049;-69
2023/04/29 01:34:26;;;;;;;40.08;20.20;;;9.30;99.90;;;;;;5041238;28;20074;-69
2023/04/29 01:37:13;;;;;;;45.58;21.33;;;9.30;99.90;;;;;;5040997;28;20033;-68
2023/04/29 01:39:45;;;;;;;36.60;18.02;;;9.30;99.90;;;;;;5043730;28;20033;-68
2023/04/29 01:42:35;;;;;;;41.03;21.73;;;9.30;99.90;;;;;;5040614;28;20056;-67
2023/04/29 01:45:06;;;;;;;51.28;25.92;;;9.30;99.90;;;;;;5043469;28;20056;-68
2023/04/29 01:47:32;;;;;;;39.10;20.53;;;9.30;99.90;;;;;;5039068;28;20041;-67
2023/04/29 01:49:58;;;;;;;39.03;19.73;;;9.40;99.90;;;;;;5027764;28;20393;-67
2023/04/29 01:52:24;;;;;;;46.85;20.75;;;9.30;99.90;;;;;;5043078;28;20041;-65
2023/04/29 01:54:49;;;;;;;38.75;16.88;;;9.40;99.90;;;;;;5042233;28;20491;-70
2023/04/29 01:57:15;;;;;;;47.45;21.23;;;9.30;99.90;;;;;;5040795;28;20053;-69
2023/04/29 01:59:41;;;;;;;47.35;23.83;;;9.30;99.90;;;;;;5043458;28;20037;-67
2023/04/29 02:02:08;;;;;;;37.28;16.92;;;9.20;99.90;;;;;;5040701;28;20186;-69
2023/04/29 02:04:34;;;;;;;53.17;23.77;;;9.40;99.90;;;;;;5041877;28;20055;-66
2023/04/29 02:07:00;;;;;;;51.15;23.65;;;9.30;99.90;;;;;;5040749;28;20040;-71
2023/04/29 02:09:26;;;;;;;39.92;20.23;;;9.30;99.90;;;;;;5041292;28;20041;-67
2023/04/29 02:11:51;;;;;;;45.42;20.02;;;9.30;99.90;;;;;;5043087;28;20047;-67
2023/04/29 02:14:17;;;;;;;48.80;21.23;;;9.30;99.90;;;;;;5040174;28;20032;-68
2023/04/29 02:16:44;;;;;;;47.30;19.95;;;9.30;99.90;;;;;;5062388;28;20483;-66
2023/04/29 02:19:13;;;;;;;40.05;21.80;;;9.20;99.90;;;;;;5040643;28;20060;-67
2023/04/29 02:21:41;;;;;;;44.33;21.20;;;9.20;99.90;;;;;;5058550;28;20037;-68
2023/04/29 02:24:07;;;;;;;46.05;20.38;;;9.20;99.90;;;;;;5042710;28;20040;-67
2023/04/29 02:26:36;;;;;;;43.22;20.25;;;9.20;99.90;;;;;;5037814;28;20055;-66
2023/04/29 02:29:02;;;;;;;47.05;22.58;;;9.20;99.90;;;;;;5042465;28;20127;-67
2023/04/29 02:31:28;;;;;;;43.60;19.75;;;9.20;99.90;;;;;;5045084;28;20584;-68
2023/04/29 02:33:54;;;;;;;49.60;20.48;;;9.20;99.90;;;;;;5044387;28;20787;-67
2023/04/29 02:36:20;;;;;;;41.90;16.92;;;9.10;99.90;;;;;;5039509;28;20507;-67
2023/04/29 02:38:45;;;;;;;39.35;18.13;;;9.20;99.90;;;;;;5041604;28;20037;-68
2023/04/29 02:41:16;;;;;;;43.05;20.75;;;9.20;99.90;;;;;;5058247;28;20454;-69
2023/04/29 02:43:43;;;;;;;40.25;19.98;;;9.20;99.90;;;;;;5037471;28;20037;-68
2023/04/29 02:46:09;;;;;;;53.75;21.23;;;9.20;99.90;;;;;;5039232;28;20087;-67
2023/04/29 02:48:35;;;;;;;42.50;18.95;;;9.20;99.90;;;;;;5039575;28;20073;-68
2023/04/29 02:51:01;;;;;;;48.50;23.58;;;9.20;99.90;;;;;;5021596;28;20040;-68
2023/04/29 02:53:26;;;;;;;39.47;19.80;;;9.20;99.90;;;;;;5038484;28;20048;-67
2023/04/29 02:55:52;;;;;;;44.22;18.50;;;9.20;99.90;;;;;;5041789;28;20256;-68
2023/04/29 02:58:17;;;;;;;45.42;20.90;;;9.20;99.90;;;;;;5040196;28;20390;-70
2023/04/29 03:00:43;;;;;;;50.45;24.08;;;9.20;99.90;;;;;;5040283;28;20033;-68
2023/04/29 03:03:09;;;;;;;34.95;16.77;;;9.20;99.90;;;;;;5054736;28;20048;-69
2023/04/29 03:05:35;;;;;;;45.35;21.90;;;9.20;99.90;;;;;;5045318;28;20044;-67
2023/04/29 03:08:01;;;;;;;37.38;18.58;;;9.20;99.90;;;;;;5040765;28;20044;-71
2023/04/29 03:10:27;;;;;;;43.45;22.35;;;9.10;99.90;;;;;;5039412;28;20732;-67
2023/04/29 03:12:52;;;;;;;41.25;20.98;;;9.20;99.90;;;;;;5037869;28;20043;-67
2023/04/29 03:15:18;;;;;;;41.78;20.42;;;9.10;99.90;;;;;;5039163;28;20484;-69
2023/04/29 03:17:45;;;;;;;32.60;17.58;;;9.10;99.90;;;;;;5039194;28;20045;-69
2023/04/29 03:20:11;;;;;;;36.75;19.85;;;9.10;99.90;;;;;;5040507;28;20094;-69
2023/04/29 03:22:36;;;;;;;37.83;17.90;;;9.10;99.90;;;;;;5039559;28;20033;-72
2023/04/29 03:25:02;;;;;;;32.10;14.20;;;9.10;99.90;;;;;;5040632;28;20029;-65
2023/04/29 03:27:28;;;;;;;34.08;15.48;;;9.10;99.90;;;;;;5038887;28;20063;-68
2023/04/29 03:29:53;;;;;;;35.33;16.98;;;9.10;99.90;;;;;;5042131;28;20099;-67
2023/04/29 03:32:19;;;;;;;30.00;13.98;;;9.00;99.90;;;;;;5038271;28;20124;-67
2023/04/29 03:34:44;;;;;;;41.75;21.38;;;9.00;99.90;;;;;;5057508;28;20037;-68
2023/04/29 03:37:10;;;;;;;40.83;19.27;;;9.00;99.90;;;;;;5041689;28;20037;-68
2023/04/29 03:39:35;;;;;;;36.88;20.45;;;8.90;99.90;;;;;;5064802;28;20036;-68
2023/04/29 03:42:01;;;;;;;44.67;22.23;;;8.90;99.90;;;;;;5046751;28;20344;-69
2023/04/29 03:44:28;;;;;;;38.38;19.33;;;8.90;99.90;;;;;;5048148;28;20416;-68
2023/04/29 03:46:54;;;;;;;38.53;18.88;;;8.80;99.90;;;;;;5048673;28;20040;-68
2023/04/29 03:49:19;;;;;;;37.70;20.25;;;8.80;99.90;;;;;;5042378;28;20094;-69
2023/04/29 03:51:45;;;;;;;35.30;18.25;;;8.70;99.90;;;;;;5045709;28;20044;-69
2023/04/29 03:54:12;;;;;;;37.50;20.65;;;8.70;99.90;;;;;;5046644;28;20041;-69
2023/04/29 03:56:37;;;;;;;44.47;21.75;;;8.70;99.90;;;;;;5044133;28;20148;-69
2023/04/29 03:59:03;;;;;;;39.05;19.65;;;8.60;99.90;;;;;;5055479;28;20141;-67
2023/04/29 04:01:29;;;;;;;41.58;20.30;;;8.70;99.90;;;;;;5057031;28;20033;-70
2023/04/29 04:03:55;;;;;;;38.20;18.90;;;8.60;99.90;;;;;;5042554;28;20431;-68
2023/04/29 04:06:21;;;;;;;42.08;20.38;;;8.60;99.90;;;;;;5043720;28;20128;-69
2023/04/29 04:08:46;;;;;;;38.78;17.77;;;8.60;99.90;;;;;;5043913;28;20111;-69
2023/04/29 04:11:13;;;;;;;37.80;17.15;;;8.70;99.90;;;;;;5047542;28;20052;-67
2023/04/29 04:13:42;;;;;;;40.17;18.90;;;8.60;99.90;;;;;;5049362;28;20476;-66
2023/04/29 04:16:09;;;;;;;35.40;16.55;;;8.60;99.90;;;;;;5059205;28;20432;-68
2023/04/29 04:18:36;;;;;;;43.78;18.95;;;8.70;99.90;;;;;;5051154;28;20033;-69
2023/04/29 04:21:09;;;;;;;43.20;21.90;;;8.70;99.90;;;;;;5047129;28;20529;-69
2023/04/29 04:23:39;;;;;;;39.60;18.58;;;8.70;99.90;;;;;;5047520;28;20040;-66
2023/04/29 04:26:05;;;;;;;36.03;15.65;;;8.80;99.90;;;;;;5050071;28;20041;-67
2023/04/29 04:28:30;;;;;;;39.08;19.52;;;8.70;99.90;;;;;;5043517;28;20041;-67
2023/04/29 04:30:56;;;;;;;46.25;21.92;;;8.80;99.90;;;;;;5045735;28;20231;-67
2023/04/29 04:33:21;;;;;;;35.42;16.85;;;8.80;99.90;;;;;;5042856;28;20515;-66
2023/04/29 04:35:47;;;;;;;44.65;19.95;;;8.80;99.90;;;;;;5045609;28;20475;-65
2023/04/29 04:38:14;;;;;;;30.90;14.40;;;8.80;99.90;;;;;;5044332;28;20035;-69
2023/04/29 04:40:43;;;;;;;31.08;15.25;;;8.80;99.90;;;;;;5044889;28;20507;-71
2023/04/29 04:43:08;;;;;;;30.60;15.90;;;8.80;99.90;;;;;;5055199;28;20063;-70
2023/04/29 04:45:34;;;;;;;37.90;17.15;;;8.90;99.90;;;;;;5046063;28;20037;-69
2023/04/29 04:48:00;;;;;;;29.65;13.63;;;8.90;99.90;;;;;;5043782;28;20040;-69
2023/04/29 04:50:29;;;;;;;38.47;18.02;;;8.80;99.90;;;;;;5041109;28;20499;-68
2023/04/29 04:52:57;;;;;;;44.42;18.50;;;8.80;99.90;;;;;;5040755;28;20040;-69
2023/04/29 04:55:23;;;;;;;38.33;16.67;;;8.80;99.90;;;;;;5047251;28;20391;-68
2023/04/29 04:57:49;;;;;;;37.20;18.45;;;8.90;99.90;;;;;;5045296;28;20032;-67
2023/04/29 05:00:15;;;;;;;32.72;18.00;;;8.80;99.90;;;;;;5044526;28;20491;-68
2023/04/29 05:02:46;;;;;;;42.42;19.55;;;8.90;99.90;;;;;;5044544;28;20040;-70
2023/04/29 05:05:11;;;;;;;33.13;16.23;;;8.80;99.90;;;;;;5046322;28;20484;-70
2023/04/29 05:07:37;;;;;;;38.70;18.92;;;8.90;99.90;;;;;;5040886;28;20048;-70
2023/04/29 05:10:03;;;;;;;33.83;16.10;;;9.00;99.90;;;;;;5044329;28;20033;-70
2023/04/29 05:12:29;;;;;;;40.70;19.27;;;8.90;99.90;;;;;;5044657;28;20045;-68
2023/04/29 05:14:56;;;;;;;31.95;15.02;;;8.90;99.90;;;;;;5046407;28;20048;-70
2023/04/29 05:17:23;;;;;;;35.63;17.15;;;9.00;99.90;;;;;;5047574;28;20037;-67
2023/04/29 05:19:49;;;;;;;35.00;16.45;;;9.00;99.90;;;;;;5046949;28;20037;-69
2023/04/29 05:22:15;;;;;;;30.08;13.68;;;9.00;99.90;;;;;;5045902;28;20063;-69
2023/04/29 05:24:41;;;;;;;31.50;14.88;;;9.00;99.90;;;;;;5065648;28;20032;-69
2023/04/29 05:27:06;;;;;;;32.05;15.65;;;9.00;99.90;;;;;;5046016;28;20040;-70
2023/04/29 05:29:32;;;;;;;32.83;15.45;;;8.90;99.90;;;;;;5041396;28;20041;-72
2023/04/29 05:31:58;;;;;;;34.13;15.45;;;9.00;99.90;;;;;;5041778;28;20685;-67
2023/04/29 05:34:23;;;;;;;25.00;11.77;;;9.00;99.90;;;;;;5051584;28;20052;-66
2023/04/29 05:36:49;;;;;;;28.13;14.35;;;9.10;99.90;;;;;;5042098;28;20043;-68
2023/04/29 05:39:15;;;;;;;25.90;12.05;;;9.00;99.90;;;;;;5023043;28;20045;-67
2023/04/29 05:41:42;;;;;;;28.98;14.88;;;9.00;99.90;;;;;;5039603;28;20045;-68
2023/04/29 05:44:08;;;;;;;34.20;13.73;;;9.10;99.90;;;;;;5041447;28;20053;-67
2023/04/29 05:46:34;;;;;;;17.63;9.50;;;9.10;99.90;;;;;;5042109;28;20045;-68
2023/04/29 05:48:59;;;;;;;30.35;14.77;;;9.20;99.90;;;;;;5040507;28;20041;-67
2023/04/29 05:51:27;;;;;;;33.92;15.95;;;9.10;99.90;;;;;;5061078;28;20067;-68
2023/04/29 05:53:53;;;;;;;21.35;10.80;;;9.20;99.90;;;;;;5039303;28;20558;-68
2023/04/29 05:56:18;;;;;;;27.15;13.75;;;9.20;99.90;;;;;;5040173;28;20041;-69
2023/04/29 05:58:44;;;;;;;25.35;12.73;;;9.20;99.90;;;;;;5039079;28;20033;-67
2023/04/29 06:01:10;;;;;;;29.33;13.55;;;9.30;99.90;;;;;;5042831;28;20048;-70
2023/04/29 06:03:35;;;;;;;25.05;13.30;;;9.20;99.90;;;;;;5042739;28;20454;-69
2023/04/29 06:06:01;;;;;;;23.30;12.43;;;9.30;99.90;;;;;;5045942;28;20033;-66
2023/04/29 06:08:27;;;;;;;23.70;12.07;;;9.30;99.90;;;;;;5044952;28;20140;-67
2023/04/29 06:10:53;;;;;;;34.75;12.73;;;9.30;99.90;;;;;;5046280;28;20116;-68
2023/04/29 06:13:18;;;;;;;21.38;11.75;;;9.40;99.90;;;;;;5047457;28;20119;-70
2023/04/29 06:15:44;;;;;;;23.40;10.98;;;9.40;99.90;;;;;;5043728;28;20045;-68
2023/04/29 06:18:10;;;;;;;23.60;12.05;;;9.50;99.90;;;;;;5056027;28;20468;-68
2023/04/29 06:20:36;;;;;;;25.00;12.63;;;9.50;99.90;;;;;;5041028;28;20049;-68
2023/04/29 06:23:02;;;;;;;21.73;11.48;;;9.50;99.90;;;;;;5043304;28;20045;-69
2023/04/29 06:25:27;;;;;;;25.98;11.35;;;9.60;99.90;;;;;;5042097;28;20040;-67
2023/04/29 06:27:53;;;;;;;22.35;11.27;;;9.70;99.90;;;;;;5042309;28;20041;-67
2023/04/29 06:30:18;;;;;;;21.35;11.55;;;9.70;99.90;;;;;;5042859;28;20041;-71
2023/04/29 06:32:48;;;;;;;24.20;11.75;;;9.70;99.90;;;;;;5056098;28;20167;-68
2023/04/29 06:35:14;;;;;;;22.63;11.05;;;9.80;99.90;;;;;;5043749;28;20039;-69
2023/04/29 06:37:39;;;;;;;18.23;9.88;;;9.90;99.90;;;;;;5043393;28;20400;-69
2023/04/29 06:40:06;;;;;;;19.27;10.52;;;9.90;99.90;;;;;;5044790;28;20037;-70
2023/04/29 06:42:31;;;;;;;22.67;12.30;;;10.00;99.90;;;;;;5036186;28;20052;-70
2023/04/29 06:44:57;;;;;;;25.80;10.45;;;10.00;99.90;;;;;;5041084;28;20037;-69
2023/04/29 06:47:22;;;;;;;19.63;11.73;;;10.10;99.90;;;;;;5039135;28;20450;-70
2023/04/29 06:49:48;;;;;;;21.52;11.07;;;10.20;99.90;;;;;;5043280;28;20047;-68
2023/04/29 06:52:14;;;;;;;13.93;6.60;;;10.20;99.90;;;;;;5039081;28;20087;-68
2023/04/29 06:54:39;;;;;;;20.10;10.55;;;10.20;99.90;;;;;;5043365;28;20095;-68
2023/04/29 06:57:05;;;;;;;20.45;11.27;;;10.30;99.90;;;;;;5043442;28;20071;-69
2023/04/29 06:59:31;;;;;;;17.73;9.75;;;10.30;99.90;;;;;;5039978;28;20037;-69
2023/04/29 07:01:57;;;;;;;17.75;11.15;;;10.40;99.90;;;;;;5044712;28;20165;-71
2023/04/29 07:04:22;;;;;;;23.02;11.13;;;10.40;99.90;;;;;;5042633;28;20139;-72
2023/04/29 07:06:48;;;;;;;18.45;11.05;;;10.40;99.90;;;;;;5039143;28;20049;-69
2023/04/29 07:09:13;;;;;;;20.17;10.45;;;10.50;99.90;;;;;;5058239;28;20044;-68
2023/04/29 07:11:39;;;;;;;18.40;9.32;;;10.60;99.90;;;;;;5045531;28;20041;-71
2023/04/29 07:14:06;;;;;;;18.25;10.95;;;10.80;99.90;;;;;;5048806;28;20115;-69
2023/04/29 07:16:32;;;;;;;25.27;11.15;;;11.00;99.90;;;;;;5047115;28;20068;-69
2023/04/29 07:18:58;;;;;;;19.42;10.27;;;11.10;99.90;;;;;;5061517;28;20032;-69
2023/04/29 07:21:23;;;;;;;21.92;11.40;;;11.30;99.90;;;;;;5047179;28;20082;-69
2023/04/29 07:23:49;;;;;;;18.80;10.07;;;11.40;99.90;;;;;;5046396;28;20121;-69
2023/04/29 07:26:16;;;;;;;17.67;9.43;;;11.40;99.90;;;;;;5049773;28;20048;-70
2023/04/29 07:28:42;;;;;;;14.20;7.47;;;11.40;99.90;;;;;;5044388;28;20048;-70
2023/04/29 07:31:08;;;;;;;15.73;7.47;;;11.30;99.90;;;;;;5047484;28;20052;-68
2023/04/29 07:33:34;;;;;;;18.23;8.98;;;11.30;99.90;;;;;;5046603;28;20403;-71
2023/04/29 07:36:00;;;;;;;18.92;9.68;;;11.30;99.90;;;;;;5066892;28;20109;-67
2023/04/29 07:38:26;;;;;;;15.52;9.65;;;11.30;99.90;;;;;;5050038;28;20120;-70
2023/04/29 07:40:52;;;;;;;19.20;10.10;;;11.20;99.90;;;;;;5066806;28;20143;-69
2023/04/29 07:43:18;;;;;;;15.85;8.80;;;11.30;99.90;;;;;;5064303;28;20133;-69
2023/04/29 07:45:43;;;;;;;18.45;9.70;;;11.30;99.90;;;;;;5067490;28;20438;-71
2023/04/29 07:48:09;;;;;;;14.73;8.32;;;11.40;99.90;;;;;;5062005;28;20040;-68
2023/04/29 07:50:37;;;;;;;18.08;9.88;;;11.40;99.90;;;;;;5053663;28;20095;-71
2023/04/29 07:53:03;;;;;;;18.88;9.95;;;11.50;99.90;;;;;;5045932;28;20037;-70
2023/04/29 07:55:29;;;;;;;15.30;8.60;;;11.50;99.90;;;;;;5048595;28;20399;-70
2023/04/29 07:57:56;;;;;;;14.57;9.20;;;11.60;99.90;;;;;;5051963;28;20037;-71
2023/04/29 08:00:22;;;;;;;14.35;9.15;;;11.70;99.90;;;;;;5048383;28;20123;-71
2023/04/29 08:02:51;;;;;;;15.98;9.45;;;11.70;99.90;;;;;;5049516;28;20384;-71
2023/04/29 08:05:18;;;;;;;17.65;9.55;;;11.70;99.90;;;;;;5053211;28;20033;-70
2023/04/29 08:07:43;;;;;;;16.90;9.90;;;11.80;99.90;;;;;;5050981;28;20040;-69
2023/04/29 08:10:09;;;;;;;14.23;7.95;;;11.80;99.90;;;;;;5059968;28;20450;-75
2023/04/29 08:12:35;;;;;;;16.48;9.05;;;11.80;99.90;;;;;;5049670;28;20063;-71
2023/04/29 08:15:00;;;;;;;16.30;9.43;;;11.90;99.90;;;;;;5049352;28;20053;-69
2023/04/29 08:17:26;;;;;;;18.95;9.73;;;12.00;99.90;;;;;;5048999;28;20037;-71
2023/04/29 08:19:51;;;;;;;16.50;9.88;;;12.10;99.90;;;;;;5052046;28;20059;-72
2023/04/29 08:22:17;;;;;;;18.88;9.68;;;12.10;99.90;;;;;;5053406;28;20047;-71
2023/04/29 08:24:44;;;;;;;13.55;8.80;;;12.20;99.90;;;;;;5046035;28;21015;-73
2023/04/29 08:27:09;;;;;;;16.70;9.75;;;12.30;99.90;;;;;;5047799;28;20052;-73
2023/04/29 08:29:35;;;;;;;14.30;7.72;;;12.40;99.90;;;;;;5041956;28;20396;-73
2023/04/29 08:32:01;;;;;;;14.73;9.15;;;12.40;99.90;;;;;;5043720;28;20053;-70
2023/04/29 08:34:27;;;;;;;11.88;6.65;;;12.50;99.90;;;;;;5044673;28;20068;-74
2023/04/29 08:36:52;;;;;;;16.55;9.23;;;12.40;99.90;;;;;;5047863;28;20032;-72
2023/04/29 08:39:18;;;;;;;20.25;10.13;;;12.40;99.90;;;;;;5050524;28;20487;-76
2023/04/29 08:41:48;;;;;;;14.70;9.15;;;12.40;99.90;;;;;;5050935;28;20044;-72
2023/04/29 08:44:16;;;;;;;17.30;9.80;;;12.60;99.90;;;;;;5047578;28;20044;-73
2023/04/29 08:46:44;;;;;;;14.73;7.93;;;12.80;99.90;;;;;;5047651;28;20516;-74
2023/04/29 08:49:10;;;;;;;16.52;6.93;;;12.90;99.90;;;;;;5044216;28;20407;-70
2023/04/29 08:51:35;;;;;;;16.67;8.02;;;12.90;99.90;;;;;;5042831;28;20503;-70
2023/04/29 08:54:01;;;;;;;13.35;7.00;;;12.80;99.90;;;;;;5046279;28;20047;-72
2023/04/29 08:56:29;;;;;;;19.25;7.22;;;12.80;99.90;;;;;;5044422;28;20032;-70
2023/04/29 08:58:57;;;;;;;11.05;5.65;;;12.90;99.90;;;;;;5043093;28;20045;-68
2023/04/29 09:01:26;;;;;;;13.63;7.68;;;12.90;99.90;;;;;;5045407;28;20682;-72
2023/04/29 09:04:07;;;;;;;15.68;8.13;;;12.80;99.90;;;;;;5039606;28;20404;-70
2023/04/29 09:06:32;;;;;;;14.52;8.70;;;12.80;99.90;;;;;;5042684;28;20140;-71
2023/04/29 09:08:59;;;;;;;11.70;7.93;;;12.90;99.90;;;;;;5040328;28;20575;-69
2023/04/29 09:11:27;;;;;;;14.60;8.10;;;13.20;99.90;;;;;;5043555;28;20047;-70
2023/04/29 09:14:01;;;;;;;11.80;8.38;;;13.40;99.90;;;;;;5041233;28;20049;-68
2023/04/29 09:16:29;;;;;;;14.57;8.80;;;13.60;99.90;;;;;;5045049;28;20447;-71
2023/04/29 09:18:55;;;;;;;14.82;7.80;;;13.70;99.90;;;;;;5042961;28;20473;-71
2023/04/29 09:21:31;;;;;;;17.48;7.75;;;14.00;99.90;;;;;;5043067;28;20939;-72
2023/04/29 09:23:59;;;;;;;15.13;8.18;;;14.10;99.90;;;;;;5045591;28;20170;-70
2023/04/29 09:26:26;;;;;;;9.90;6.38;;;14.20;99.90;;;;;;5042513;28;20048;-72
2023/04/29 09:29:17;;;;;;;12.38;5.45;;;14.20;99.90;;;;;;5045262;28;20048;-73
2023/04/29 09:31:43;;;;;;;11.32;6.30;;;14.10;99.90;;;;;;5043576;28;20396;-74
2023/04/29 09:34:10;;;;;;;15.55;7.32;;;13.90;99.90;;;;;;5043579;28;20443;-74
2023/04/29 09:36:46;;;;;;;11.57;7.38;;;13.80;99.90;;;;;;5044079;28;20083;-76
2023/04/29 09:39:22;;;;;;;12.93;7.68;;;13.80;99.90;;;;;;5042854;28;20369;-72
2023/04/29 09:41:54;;;;;;;12.15;7.97;;;13.80;99.90;;;;;;5042354;28;20095;-71
2023/04/29 09:44:27;;;;;;;13.82;8.32;;;13.70;99.90;;;;;;5042862;28;20087;-75
2023/04/29 09:47:01;;;;;;;14.38;7.63;;;13.70;99.90;;;;;;5042876;28;20437;-69
2023/04/29 09:49:36;;;;;;;11.35;7.85;;;13.90;99.90;;;;;;5049544;28;20391;-68
2023/04/29 09:52:04;;;;;;;16.65;8.05;;;14.10;99.90;;;;;;5023897;28;20399;-68
2023/04/29 09:54:32;;;;;;;13.77;7.20;;;14.30;99.90;;;;;;5038635;28;20037;-72
2023/04/29 09:56:59;;;;;;;10.82;7.15;;;14.40;99.90;;;;;;5038244;28;20637;-73
2023/04/29 09:59:25;;;;;;;10.10;7.25;;;14.60;99.90;;;;;;5041748;28;20037;-69
2023/04/29 10:01:52;;;;;;;9.57;6.97;;;14.60;99.90;;;;;;5062626;28;20040;-70
2023/04/29 10:04:20;;;;;;;14.43;8.00;;;14.60;99.90;;;;;;5047684;28;20148;-73
2023/04/29 10:06:49;;;;;;;10.77;5.95;;;14.70;99.90;;;;;;5061769;28;20040;-76
2023/04/29 10:09:15;;;;;;;13.50;7.72;;;14.90;99.90;;;;;;5046336;28;20051;-71
2023/04/29 10:11:45;;;;;;;12.27;6.30;;;14.80;99.90;;;;;;5046755;28;20133;-75
2023/04/29 10:14:19;;;;;;;11.48;7.10;;;14.40;99.90;;;;;;5044530;28;20036;-70
2023/04/29 10:16:45;;;;;;;10.15;6.82;;;14.10;99.90;;;;;;5042528;28;20041;-75
2023/04/29 10:19:14;;;;;;;14.07;7.50;;;14.00;99.90;;;;;;5045531;28;20544;-70
2023/04/29 10:21:40;;;;;;;12.23;7.90;;;14.10;99.90;;;;;;5042386;28;20310;-70
2023/04/29 10:24:06;;;;;;;12.70;7.00;;;14.30;99.90;;;;;;5047981;28;20104;-69
2023/04/29 10:26:36;;;;;;;12.75;7.38;;;14.50;99.90;;;;;;5047200;28;20041;-69
2023/04/29 10:29:03;;;;;;;14.23;7.03;;;14.70;99.90;;;;;;5057159;28;20044;-69
2023/04/29 10:31:31;;;;;;;10.80;7.00;;;14.90;99.90;;;;;;5053760;28;20044;-67
2023/04/29 10:33:57;;;;;;;11.05;7.18;;;15.10;99.90;;;;;;5046593;28;20049;-74
2023/04/29 10:36:26;;;;;;;10.38;6.68;;;15.30;99.90;;;;;;5057018;28;20143;-70
2023/04/29 10:38:56;;;;;;;10.05;6.55;;;15.30;99.90;;;;;;5045076;28;20399;-71
2023/04/29 10:41:33;;;;;;;9.73;6.25;;;15.40;99.90;;;;;;5058316;28;20097;-70
2023/04/29 10:43:59;;;;;;;9.85;5.97;;;15.50;99.90;;;;;;5050815;28;20052;-69
2023/04/29 10:46:26;;;;;;;12.23;6.82;;;15.60;99.90;;;;;;5065979;28;20044;-68
2023/04/29 10:49:17;;;;;;;10.02;6.13;;;15.40;99.90;;;;;;5071346;28;20126;-70
2023/04/29 10:51:44;;;;;;;10.23;6.80;;;15.30;99.90;;;;;;5052689;28;20477;-71
2023/04/29 10:54:24;;;;;;;12.25;6.82;;;15.20;99.90;;;;;;5052644;28;20348;-72
2023/04/29 10:56:51;;;;;;;12.57;6.85;;;15.20;99.90;;;;;;5055568;28;20037;-70
2023/04/29 10:59:32;;;;;;;10.50;6.28;;;15.30;99.90;;;;;;5058708;28;20123;-71
2023/04/29 11:01:58;;;;;;;11.85;6.35;;;15.40;99.90;;;;;;5044349;28;20044;-69
2023/04/29 11:04:27;;;;;;;10.75;6.32;;;15.50;99.90;;;;;;5050380;28;20036;-66
2023/04/29 11:06:59;;;;;;;8.95;4.95;;;15.40;99.90;;;;;;5052776;28;20037;-67
2023/04/29 11:09:37;;;;;;;12.00;6.82;;;15.30;99.90;;;;;;5050709;28;20037;-71
2023/04/29 11:12:04;;;;;;;9.27;6.30;;;15.20;99.90;;;;;;5053483;28;20125;-72
2023/04/29 11:14:35;;;;;;;12.45;6.68;;;15.20;99.90;;;;;;5053825;28;20407;-69
2023/04/29 11:17:03;;;;;;;8.50;5.72;;;15.30;99.90;;;;;;5062480;28;20053;-68
2023/04/29 11:19:39;;;;;;;12.57;6.65;;;15.40;99.90;;;;;;5057203;28;20029;-67
2023/04/29 11:22:17;;;;;;;11.60;5.82;;;15.40;99.90;;;;;;5066303;28;20102;-67
2023/04/29 11:24:55;;;;;;;10.55;6.18;;;15.40;99.90;;;;;;5052220;28;20506;-71
2023/04/29 11:27:24;;;;;;;10.38;5.63;;;15.30;99.90;;;;;;5062358;28;20044;-69
2023/04/29 11:29:51;;;;;;;9.23;5.03;;;15.30;99.90;;;;;;5053357;28;20049;-67
2023/04/29 11:32:21;;;;;;;8.65;5.88;;;15.30;99.90;;;;;;5053817;28;20496;-67
2023/04/29 11:34:47;;;;;;;11.32;5.43;;;15.20;99.90;;;;;;5052880;28;20040;-69
2023/04/29 11:37:19;;;;;;;9.88;5.70;;;15.20;99.90;;;;;;5068310;28;20053;-67
2023/04/29 11:39:45;;;;;;;10.88;5.07;;;15.30;99.90;;;;;;5052813;28;20049;-66
2023/04/29 11:42:11;;;;;;;8.75;5.57;;;15.30;99.90;;;;;;5059510;28;20052;-70
2023/04/29 11:44:36;;;;;;;12.00;5.88;;;15.30;99.90;;;;;;5052511;28;20466;-72
2023/04/29 11:47:06;;;;;;;11.57;6.32;;;15.40;99.90;;;;;;5054773;28;20076;-70
2023/04/29 11:49:33;;;;;;;9.98;5.45;;;15.50;99.90;;;;;;5047247;28;20068;-70
2023/04/29 11:51:59;;;;;;;11.07;6.57;;;15.60;99.90;;;;;;5054585;28;20051;-69
2023/04/29 11:54:26;;;;;;;9.15;6.00;;;15.70;99.90;;;;;;5046074;28;20119;-68
2023/04/29 11:56:54;;;;;;;9.30;5.72;;;15.60;99.90;;;;;;5050105;28;20072;-70
2023/04/29 11:59:20;;;;;;;11.25;5.50;;;15.70;99.90;;;;;;5046926;28;20037;-69
2023/04/29 12:01:45;;;;;;;8.75;5.43;;;15.60;99.90;;;;;;5048819;28;20091;-70
2023/04/29 12:04:11;;;;;;;9.07;5.45;;;15.50;99.90;;;;;;5050801;28;20480;-70
2023/04/29 12:06:36;;;;;;;11.02;5.07;;;15.40;99.90;;;;;;5054239;28;20130;-69
2023/04/29 12:09:03;;;;;;;8.43;5.03;;;15.50;99.90;;;;;;5049673;28;20500;-71
2023/04/29 12:11:29;;;;;;;10.00;5.80;;;15.60;99.90;;;;;;5032849;28;20036;-69
2023/04/29 12:13:56;;;;;;;9.30;5.78;;;15.50;99.90;;;;;;5037327;28;20119;-70
2023/04/29 12:16:22;;;;;;;8.65;5.32;;;15.40;99.90;;;;;;5069906;28;20044;-69
2023/04/29 12:18:50;;;;;;;10.40;5.10;;;15.40;99.90;;;;;;5050896;28;20052;-70
2023/04/29 12:21:15;;;;;;;8.02;4.35;;;15.50;99.90;;;;;;5046977;28;20045;-71
2023/04/29 12:23:42;;;;;;;6.47;4.30;;;15.60;99.90;;;;;;5047595;28;20045;-71
2023/04/29 12:26:07;;;;;;;8.82;4.68;;;15.70;99.90;;;;;;5051003;28;20045;-67
2023/04/29 12:28:33;;;;;;;10.85;4.28;;;15.70;99.90;;;;;;5051042;28;20066;-69
2023/04/29 12:31:00;;;;;;;11.25;4.82;;;15.80;99.90;;;;;;5050245;28;20045;-67
2023/04/29 12:33:27;;;;;;;8.07;4.65;;;15.90;99.90;;;;;;5048058;28;20141;-67
2023/04/29 12:35:56;;;;;;;10.80;4.65;;;15.80;99.90;;;;;;5050300;28;20047;-67
2023/04/29 12:38:26;;;;;;;8.93;4.90;;;15.80;99.90;;;;;;5053388;28;20036;-70
2023/04/29 12:40:59;;;;;;;7.57;4.32;;;15.80;99.90;;;;;;5054624;28;20072;-69